Terminal Aerodrome Forecast
Issued by NWS Oklahoma City, OK

Home | Current Version | Previous Version | Text Only | Print | Product List | Glossary On
Versions: 1 2 3 4 5 6 7 8 9 10 11 12 13 14 15 16 17 18 19 20 21 22 23 24 25 26 27 28 29 30 31 32 33 34 35 36 37 38
000
FTUS44 KOUN 290520
TAFOUN
TAF
KOUN 290520Z 2906/3006 17007KT P6SM SCT250
     FM291100 16008KT P6SM BKN025
      TEMPO 2911/2915 5SM BR OVC009
     FM291500 17009KT P6SM BKN012
      TEMPO 2916/2920 6SM -TSRA BR BKN010CB
     FM292000 16007KT P6SM BKN015
      TEMPO 2920/2924 6SM -TSRA BR BKN010CB=

USA.gov is the U.S. government's official web portal to all federal, state and local government web resources and services.